createdAt,value
2018-12-15T00:01:13.622Z,13.48
2018-12-15T00:03:42.743Z,12.10
2018-12-15T00:08:51.396Z,12.00
2018-12-15T00:11:20.671Z,11.35
2018-12-15T00:13:49.777Z,11.30
2018-12-15T00:16:18.935Z,11.50
2018-12-15T00:18:48.228Z,11.30
2018-12-15T00:21:18.320Z,11.35
2018-12-15T00:26:26.613Z,10.93
2018-12-15T00:28:55.759Z,13.32
2018-12-15T00:31:25.017Z,12.07
2018-12-15T00:33:54.212Z,12.73
2018-12-15T00:36:23.364Z,14.10
2018-12-15T00:38:53.859Z,13.45
2018-12-15T00:41:23.076Z,11.22
2018-12-15T00:43:53.016Z,14.20
2018-12-15T00:46:23.095Z,12.60
2018-12-15T00:51:32.799Z,11.60
2018-12-15T00:54:01.948Z,14.10
2018-12-15T00:59:12.257Z,11.47
2018-12-15T01:01:41.484Z,14.57
2018-12-15T01:04:12.146Z,11.40
2018-12-15T01:06:41.367Z,13.13
2018-12-15T01:09:10.555Z,12.27
2018-12-15T01:11:39.668Z,12.87
2018-12-15T01:16:49.557Z,13.60
2018-12-15T01:19:18.576Z,12.70
2018-12-15T01:21:47.666Z,12.93
2018-12-15T01:24:17.912Z,12.40
2018-12-15T01:26:46.995Z,12.07
2018-12-15T01:29:17.644Z,11.93
2018-12-15T01:31:46.820Z,12.87
2018-12-15T01:34:15.972Z,15.23
2018-12-15T01:36:45.089Z,15.37
2018-12-15T01:39:14.121Z,11.00
2018-12-15T01:44:21.455Z,13.10
2018-12-15T01:49:29.112Z,13.93
2018-12-15T01:51:58.312Z,14.10
2018-12-15T01:54:27.531Z,13.73
2018-12-15T01:56:56.736Z,14.17
2018-12-15T01:59:25.963Z,13.38
2018-12-15T02:01:55.109Z,10.60
2018-12-15T02:04:24.287Z,12.53
2018-12-15T02:06:55.148Z,13.10
2018-12-15T02:09:24.264Z,11.57
2018-12-15T02:11:54.076Z,11.85
2018-12-15T02:14:24.048Z,13.76
2018-12-15T02:16:54.176Z,14.23
2018-12-15T02:19:24.148Z,12.60
2018-12-15T02:21:54.128Z,15.13
2018-12-15T02:24:24.225Z,15.28
2018-12-15T02:29:33.372Z,13.10
2018-12-15T02:32:02.566Z,11.73
2018-12-15T02:34:31.725Z,15.23
2018-12-15T02:37:00.932Z,13.17
2018-12-15T02:42:09.322Z,13.87
2018-12-15T02:44:38.398Z,13.60
2018-12-15T02:47:07.561Z,14.03
2018-12-15T02:49:36.674Z,13.00
2018-12-15T02:54:44.081Z,14.77
2018-12-15T02:57:13.286Z,12.50
2018-12-15T02:59:42.705Z,13.65
2018-12-15T03:02:12.193Z,13.40
2018-12-15T03:04:41.389Z,14.45
2018-12-15T03:07:10.514Z,13.27
2018-12-15T03:09:39.627Z,13.77
2018-12-15T03:12:08.816Z,13.35
2018-12-15T03:14:38.007Z,15.45
2018-12-15T03:17:07.829Z,14.90
2018-12-15T03:19:36.944Z,14.80
2018-12-15T03:22:06.347Z,14.57
2018-12-15T03:27:16.412Z,13.33
2018-12-15T03:32:24.769Z,12.93
2018-12-15T03:34:55.088Z,14.25
2018-12-15T03:37:25.266Z,13.98
2018-12-15T03:39:55.099Z,13.70
2018-12-15T03:42:25.309Z,12.90
2018-12-15T03:44:55.284Z,14.07
2018-12-15T03:50:03.427Z,14.13
2018-12-15T03:52:32.526Z,14.47
2018-12-15T03:55:01.722Z,12.93
2018-12-15T03:57:30.868Z,13.70
2018-12-15T03:59:59.973Z,13.95
2018-12-15T04:02:29.183Z,14.23
2018-12-15T04:04:58.464Z,15.23
2018-12-15T04:07:27.550Z,14.85
2018-12-15T04:09:56.758Z,13.57
2018-12-15T04:12:25.980Z,13.77
2018-12-15T04:14:55.652Z,14.45
2018-12-15T04:17:25.755Z,14.04
2018-12-15T04:19:55.628Z,12.60
2018-12-15T04:22:25.814Z,13.92
2018-12-15T04:24:55.784Z,14.18
2018-12-15T04:27:25.760Z,14.62
2018-12-15T04:29:55.937Z,12.82
2018-12-15T04:32:25.935Z,11.63
2018-12-15T04:37:34.983Z,14.63
2018-12-15T04:40:05.051Z,14.20
2018-12-15T04:42:34.200Z,13.27
2018-12-15T04:45:03.313Z,13.90
2018-12-15T04:47:32.428Z,14.23
2018-12-15T04:52:42.825Z,13.40
2018-12-15T04:57:51.126Z,14.53
2018-12-15T05:03:01.459Z,12.47
2018-12-15T05:05:30.536Z,13.15
2018-12-15T05:07:59.759Z,11.83
2018-12-15T05:10:28.976Z,12.23
2018-12-15T05:12:58.088Z,13.30
2018-12-15T05:15:27.319Z,12.00
2018-12-15T05:20:35.469Z,12.90
2018-12-15T05:23:04.602Z,13.93
2018-12-15T05:25:33.744Z,12.33
2018-12-15T05:30:42.156Z,13.33
2018-12-15T05:33:11.323Z,12.37
2018-12-15T05:35:40.495Z,12.63
2018-12-15T05:40:48.640Z,14.70
2018-12-15T05:43:17.980Z,13.57
2018-12-15T05:48:26.275Z,12.27
2018-12-15T05:53:35.620Z,10.60
2018-12-15T05:56:04.812Z,13.62
2018-12-15T06:01:13.117Z,11.17
2018-12-15T06:06:21.270Z,12.33
2018-12-15T06:08:50.458Z,10.87
2018-12-15T06:11:19.548Z,12.13
2018-12-15T06:13:48.640Z,11.57
2018-12-15T06:16:17.901Z,10.90
2018-12-15T06:21:26.253Z,11.73
2018-12-15T06:23:55.481Z,10.07
2018-12-15T06:26:24.668Z,11.00
2018-12-15T06:28:53.868Z,11.13
2018-12-15T06:31:23.025Z,9.30
2018-12-15T06:33:52.084Z,10.97
2018-12-15T06:36:21.168Z,8.93
2018-12-15T06:38:50.339Z,9.08
2018-12-15T06:41:19.480Z,8.90
2018-12-15T06:43:48.683Z,8.20
2018-12-15T06:46:18.031Z,8.33
2018-12-15T06:48:47.678Z,7.30
2018-12-15T06:51:17.848Z,6.85
2018-12-15T06:56:26.948Z,9.70
2018-12-15T06:58:56.611Z,8.10
2018-12-15T07:01:25.735Z,7.78
2018-12-15T07:03:54.884Z,8.57
2018-12-15T07:06:23.993Z,8.80
2018-12-15T07:08:53.157Z,7.27
2018-12-15T07:11:22.299Z,10.07
2018-12-15T07:13:54.266Z,7.70
2018-12-15T07:16:23.392Z,8.30
2018-12-15T07:18:52.567Z,8.90
2018-12-15T07:21:21.687Z,9.27
2018-12-15T07:23:50.876Z,8.95
2018-12-15T07:26:20.063Z,7.77
2018-12-15T07:28:49.169Z,9.07
2018-12-15T07:31:18.315Z,8.67
2018-12-15T07:33:47.481Z,9.80
2018-12-15T07:38:57.112Z,9.57
2018-12-15T07:41:26.264Z,8.93
2018-12-15T07:43:55.360Z,10.13
2018-12-15T07:46:24.496Z,8.95
2018-12-15T07:48:53.639Z,7.87
2018-12-15T07:54:04.263Z,10.80
2018-12-15T07:56:33.447Z,8.50
2018-12-15T07:59:02.566Z,9.05
2018-12-15T08:01:31.844Z,10.15
2018-12-15T08:04:01.024Z,8.70
2018-12-15T08:06:30.104Z,9.90
2018-12-15T08:08:59.316Z,8.63
2018-12-15T08:11:33.795Z,10.82
2018-12-15T08:16:45.419Z,9.07
2018-12-15T08:19:14.611Z,8.77
2018-12-15T08:24:22.668Z,10.77
2018-12-15T08:26:51.844Z,9.67
2018-12-15T08:31:59.968Z,8.17
2018-12-15T08:34:30.540Z,11.03
2018-12-15T08:36:59.747Z,9.25
2018-12-15T08:39:28.861Z,9.03
2018-12-15T08:41:58.880Z,9.45
2018-12-15T08:44:29.048Z,9.55
2018-12-15T08:46:59.918Z,8.40
2018-12-15T08:49:28.980Z,9.23
2018-12-15T08:51:58.992Z,8.08
2018-12-15T08:54:29.535Z,9.10
2018-12-15T08:59:45.968Z,10.90
2018-12-15T09:02:15.168Z,11.33
2018-12-15T09:04:45.525Z,10.20
2018-12-15T09:07:14.844Z,10.77
2018-12-15T09:12:23.119Z,12.07
2018-12-15T09:14:52.372Z,11.68
2018-12-15T09:17:21.470Z,13.80
2018-12-15T09:19:50.671Z,11.10
2018-12-15T09:22:19.752Z,12.27
2018-12-15T09:24:48.900Z,13.10
2018-12-15T09:27:18.184Z,13.03
2018-12-15T09:29:47.318Z,10.60
2018-12-15T09:32:16.436Z,13.53
2018-12-15T09:34:45.645Z,13.43
2018-12-15T09:37:15.743Z,11.60
2018-12-15T09:39:44.869Z,11.90
2018-12-15T09:42:14.011Z,11.77
2018-12-15T09:44:43.444Z,11.93
2018-12-15T09:47:12.715Z,9.85
2018-12-15T09:49:41.803Z,10.87
2018-12-15T09:52:11.033Z,10.90
2018-12-15T09:57:20.060Z,9.93
2018-12-15T09:59:49.161Z,9.97
2018-12-15T10:02:18.407Z,10.60
2018-12-15T10:04:47.579Z,11.00
2018-12-15T10:07:16.792Z,11.10
2018-12-15T10:12:25.024Z,11.23
2018-12-15T10:14:54.176Z,10.60
2018-12-15T10:20:02.151Z,11.27
2018-12-15T10:22:32.453Z,10.45
2018-12-15T10:25:01.575Z,13.07
2018-12-15T10:27:31.344Z,10.90
2018-12-15T10:31:07.546Z,10.68
2018-12-15T10:33:36.724Z,9.97
2018-12-15T10:36:06.024Z,11.00
2018-12-15T10:38:35.184Z,11.37
2018-12-15T10:41:04.607Z,10.63
2018-12-15T10:43:33.736Z,10.25
2018-12-15T10:46:02.947Z,9.50
2018-12-15T10:51:10.140Z,10.47
2018-12-15T10:53:39.320Z,10.00
2018-12-15T10:56:08.460Z,12.50
2018-12-15T10:58:37.484Z,10.93
2018-12-15T11:01:11.771Z,10.55
2018-12-15T11:03:42.283Z,11.05
2018-12-15T11:06:11.376Z,9.87
2018-12-15T11:08:40.580Z,9.60
2018-12-15T11:11:10.724Z,10.43
2018-12-15T11:13:39.807Z,10.00
2018-12-15T11:16:09.010Z,10.73
2018-12-15T11:18:38.172Z,9.63
2018-12-15T11:21:07.296Z,9.60
2018-12-15T11:23:36.480Z,8.67
2018-12-15T11:26:05.783Z,10.23
2018-12-15T11:28:35.207Z,9.33
2018-12-15T11:31:04.636Z,8.00
2018-12-15T11:33:33.936Z,9.30
2018-12-15T11:36:03.172Z,8.63
2018-12-15T11:38:32.336Z,8.90
2018-12-15T11:41:02.120Z,9.13
2018-12-15T11:43:32.222Z,8.38
2018-12-15T11:46:03.511Z,8.80
2018-12-15T11:48:32.663Z,8.85
2018-12-15T11:51:02.236Z,8.43
2018-12-15T11:53:32.427Z,8.30
2018-12-15T11:58:40.724Z,8.83
2018-12-15T12:01:09.970Z,10.07
2018-12-15T12:03:39.032Z,7.90
2018-12-15T12:06:08.200Z,7.60
2018-12-15T12:08:37.515Z,8.80
2018-12-15T12:11:06.790Z,7.50
2018-12-15T12:13:35.960Z,8.05
2018-12-15T12:16:06.335Z,9.10
2018-12-15T12:18:35.768Z,9.23
2018-12-15T12:21:05.164Z,8.37
2018-12-15T12:23:34.425Z,8.20
2018-12-15T12:26:03.724Z,9.03
2018-12-15T12:28:33.027Z,7.33
2018-12-15T12:31:02.925Z,7.90
2018-12-15T12:33:32.957Z,7.58
2018-12-15T12:36:02.900Z,7.45
2018-12-15T12:38:32.875Z,8.75
2018-12-15T12:41:03.041Z,8.40
2018-12-15T12:43:32.991Z,8.55
2018-12-15T12:46:03.123Z,7.15
2018-12-15T12:48:33.083Z,7.16
2018-12-15T12:51:03.156Z,6.17
2018-12-15T12:53:33.036Z,8.08
2018-12-15T12:56:03.616Z,8.08
2018-12-15T12:58:33.119Z,7.34
2018-12-15T13:03:44.136Z,7.80
2018-12-15T13:06:13.251Z,9.60
2018-12-15T13:08:42.396Z,7.23
2018-12-15T13:11:11.580Z,9.30
2018-12-15T13:13:40.804Z,7.20
2018-12-15T13:16:10.093Z,7.27
2018-12-15T13:18:39.265Z,9.23
2018-12-15T13:21:08.472Z,8.98
2018-12-15T13:23:37.664Z,10.07
2018-12-15T13:26:06.779Z,8.23
2018-12-15T13:28:35.956Z,9.83
2018-12-15T13:31:05.145Z,8.77
2018-12-15T13:33:36.494Z,8.90
2018-12-15T13:36:17.705Z,9.90
2018-12-15T13:38:47.028Z,7.77
2018-12-15T13:41:16.483Z,9.43
2018-12-15T13:43:45.719Z,9.20
2018-12-15T13:48:53.961Z,8.67
2018-12-15T13:51:23.072Z,9.08
2018-12-15T13:53:52.231Z,9.33
2018-12-15T13:58:59.685Z,9.30
2018-12-15T14:01:28.772Z,10.30
2018-12-15T14:06:36.612Z,10.13
2018-12-15T14:09:08.474Z,9.13
2018-12-15T14:11:37.784Z,10.30
2018-12-15T14:14:06.968Z,9.87
2018-12-15T14:16:36.147Z,10.10
2018-12-15T14:19:05.445Z,10.17
2018-12-15T14:21:34.656Z,10.82
2018-12-15T14:24:04.695Z,10.10
2018-12-15T14:26:34.589Z,11.78
2018-12-15T14:29:04.890Z,11.00
2018-12-15T14:31:36.006Z,11.08
2018-12-15T14:34:05.233Z,12.80
2018-12-15T14:36:34.804Z,12.45
2018-12-15T14:39:07.771Z,11.25
2018-12-15T14:44:16.637Z,11.30
2018-12-15T14:46:45.792Z,11.65
2018-12-15T14:49:14.988Z,11.85
2018-12-15T14:51:44.231Z,12.53
2018-12-15T14:56:51.116Z,13.33
2018-12-15T14:59:20.408Z,13.57
2018-12-15T15:01:49.528Z,12.77
2018-12-15T15:04:18.785Z,13.73
2018-12-15T15:06:47.989Z,12.33
2018-12-15T15:09:18.019Z,12.73
2018-12-15T15:11:47.289Z,12.18
2018-12-15T15:14:16.400Z,11.80
2018-12-15T15:19:24.804Z,13.07
2018-12-15T15:21:53.952Z,14.30
2018-12-15T15:24:23.312Z,12.03
2018-12-15T15:26:52.539Z,9.60
2018-12-15T15:29:21.629Z,12.57
2018-12-15T15:31:50.753Z,12.73
2018-12-15T15:34:19.915Z,13.07
2018-12-15T15:36:49.200Z,10.80
2018-12-15T15:39:18.383Z,11.97
2018-12-15T15:44:26.046Z,11.17
2018-12-15T15:46:55.116Z,11.30
2018-12-15T15:52:01.936Z,11.33
2018-12-15T15:54:31.092Z,11.93
2018-12-15T15:57:00.151Z,11.93
2018-12-15T15:59:29.262Z,13.45
2018-12-15T16:01:58.406Z,10.87
2018-12-15T16:04:27.578Z,13.20
2018-12-15T16:09:35.942Z,12.87
2018-12-15T16:14:45.147Z,10.87
2018-12-15T16:17:14.297Z,10.40
2018-12-15T16:19:43.932Z,11.43
2018-12-15T16:22:13.162Z,12.10
2018-12-15T16:24:42.415Z,11.12
2018-12-15T16:27:11.530Z,11.43
2018-12-15T16:29:41.240Z,10.77
2018-12-15T16:32:10.356Z,11.70
2018-12-15T16:34:39.898Z,9.30
2018-12-15T16:37:09.151Z,9.60
2018-12-15T16:39:38.325Z,9.77
2018-12-15T16:42:07.484Z,10.40
2018-12-15T16:44:36.718Z,11.20
2018-12-15T16:47:06.884Z,10.55
2018-12-15T16:49:36.805Z,10.52
2018-12-15T16:54:46.064Z,11.50
2018-12-15T16:57:15.901Z,9.83
2018-12-15T16:59:45.048Z,11.28
2018-12-15T17:02:14.408Z,10.10
2018-12-15T17:04:43.536Z,11.13
2018-12-15T17:07:12.692Z,11.23
2018-12-15T17:09:41.903Z,11.03
2018-12-15T17:12:11.060Z,10.40
2018-12-15T17:14:40.215Z,11.40
2018-12-15T17:17:09.344Z,11.97
2018-12-15T17:19:38.578Z,11.03
2018-12-15T17:22:08.472Z,9.87
2018-12-15T17:24:37.633Z,10.27
2018-12-15T17:27:07.460Z,10.63
2018-12-15T17:29:38.503Z,11.35
2018-12-15T17:32:07.672Z,9.53
2018-12-15T17:37:16.841Z,9.07
2018-12-15T17:39:52.724Z,9.13
2018-12-15T17:42:21.983Z,8.37
2018-12-15T17:44:51.186Z,9.48
2018-12-15T17:47:20.347Z,9.30
2018-12-15T17:49:49.447Z,9.45
2018-12-15T17:52:19.016Z,8.60
2018-12-15T17:57:27.157Z,8.87
2018-12-15T17:59:56.330Z,8.53
2018-12-15T18:02:25.436Z,7.70
2018-12-15T18:04:54.678Z,8.60
2018-12-15T18:07:23.750Z,7.15
2018-12-15T18:09:53.032Z,8.48
2018-12-15T18:12:22.188Z,6.83
2018-12-15T18:14:51.307Z,6.50
2018-12-15T18:17:20.603Z,7.73
2018-12-15T18:19:49.740Z,8.43
2018-12-15T18:22:18.857Z,6.73
2018-12-15T18:24:48.078Z,5.85
2018-12-15T18:27:17.955Z,7.83
2018-12-15T18:29:47.244Z,7.70
2018-12-15T18:32:16.540Z,7.22
2018-12-15T18:34:45.716Z,9.07
2018-12-15T18:37:15.092Z,6.63
2018-12-15T18:39:44.238Z,8.48
2018-12-15T18:42:13.278Z,7.10
2018-12-15T18:44:42.496Z,8.53
2018-12-15T18:49:53.001Z,6.93
2018-12-15T18:52:22.110Z,9.13
2018-12-15T18:54:51.222Z,8.08
2018-12-15T18:57:20.354Z,8.13
2018-12-15T18:59:49.458Z,7.35
2018-12-15T19:02:18.503Z,8.10
2018-12-15T19:04:47.604Z,7.87
2018-12-15T19:07:17.831Z,9.33
2018-12-15T19:09:46.955Z,8.30
2018-12-15T19:12:16.107Z,9.33
2018-12-15T19:14:45.388Z,7.93
2018-12-15T19:17:14.523Z,8.87
2018-12-15T19:19:44.296Z,8.13
2018-12-15T19:22:13.508Z,8.15
2018-12-15T19:24:42.772Z,8.60
2018-12-15T19:27:11.921Z,8.87
2018-12-15T19:29:41.264Z,8.77
2018-12-15T19:32:10.415Z,9.10
2018-12-15T19:34:39.615Z,8.07
2018-12-15T19:37:09.334Z,9.68
2018-12-15T19:39:39.351Z,10.65
2018-12-15T19:42:09.476Z,9.28
2018-12-15T19:44:39.343Z,8.90
2018-12-15T19:47:09.611Z,8.33
2018-12-15T19:52:17.669Z,13.07
2018-12-15T19:57:25.943Z,9.53
2018-12-15T19:59:55.071Z,10.88
2018-12-15T20:02:24.244Z,10.30
2018-12-15T20:04:53.475Z,11.08
2018-12-15T20:07:22.704Z,13.10
2018-12-15T20:09:51.795Z,9.80
2018-12-15T20:12:20.904Z,9.93
2018-12-15T20:14:50.064Z,11.43
2018-12-15T20:17:19.309Z,11.80
2018-12-15T20:19:48.515Z,11.50
2018-12-15T20:22:18.128Z,10.63
2018-12-15T20:24:47.186Z,11.70
2018-12-15T20:27:16.761Z,12.25
2018-12-15T20:29:45.928Z,10.63
2018-12-15T20:32:15.108Z,9.96
2018-12-15T20:34:44.332Z,10.88
2018-12-15T20:37:13.521Z,11.50
2018-12-15T20:39:43.681Z,11.93
2018-12-15T20:42:12.889Z,10.53
2018-12-15T20:44:42.037Z,11.60
2018-12-15T20:47:11.181Z,11.63
2018-12-15T20:49:41.865Z,11.87
2018-12-15T20:52:11.008Z,12.60
2018-12-15T20:54:40.368Z,9.60
2018-12-15T20:59:49.508Z,9.50
2018-12-15T21:04:58.249Z,13.27
2018-12-15T21:07:27.392Z,10.80
2018-12-15T21:09:56.504Z,9.43
2018-12-15T21:12:25.755Z,12.10
2018-12-15T21:14:58.504Z,12.80
2018-12-15T21:17:27.687Z,13.40
2018-12-15T21:19:56.857Z,12.27
2018-12-15T21:22:26.063Z,11.63
2018-12-15T21:24:58.177Z,13.57
2018-12-15T21:27:27.307Z,13.87
2018-12-15T21:32:35.899Z,15.97
2018-12-15T21:35:05.266Z,13.00
2018-12-15T21:37:34.313Z,13.03
2018-12-15T21:40:04.036Z,14.70
2018-12-15T21:42:33.230Z,14.58
2018-12-15T21:45:02.501Z,12.07
2018-12-15T21:47:31.625Z,13.20
2018-12-15T21:50:00.710Z,12.93
2018-12-15T21:52:30.974Z,15.57
2018-12-15T21:55:00.048Z,13.85
2018-12-15T22:00:08.162Z,13.70
2018-12-15T22:05:16.520Z,14.77
2018-12-15T22:07:45.701Z,13.40
2018-12-15T22:10:14.851Z,12.77
2018-12-15T22:15:23.108Z,15.27
2018-12-15T22:17:52.372Z,14.35
2018-12-15T22:20:21.865Z,14.20
2018-12-15T22:22:51.123Z,14.77
2018-12-15T22:25:20.329Z,15.73
2018-12-15T22:30:28.656Z,12.97
2018-12-15T22:32:57.970Z,13.60
2018-12-15T22:35:28.212Z,15.53
2018-12-15T22:37:57.377Z,15.95
2018-12-15T22:40:27.115Z,15.50
2018-12-15T22:42:56.233Z,16.80
2018-12-15T22:45:25.404Z,14.30
2018-12-15T22:47:54.952Z,14.50
2018-12-15T22:53:01.864Z,14.47
2018-12-15T22:55:31.012Z,14.68
2018-12-15T22:58:00.237Z,15.70
2018-12-15T23:03:19.212Z,13.13
2018-12-15T23:05:49.475Z,14.23
2018-12-15T23:08:18.813Z,14.43
2018-12-15T23:10:48.006Z,14.33
2018-12-15T23:13:19.350Z,17.66
2018-12-15T23:15:48.557Z,14.03
2018-12-15T23:18:18.099Z,15.47
2018-12-15T23:20:47.209Z,15.58
2018-12-15T23:23:16.430Z,17.00
2018-12-15T23:25:45.692Z,15.07
2018-12-15T23:28:14.955Z,16.37
2018-12-15T23:30:44.340Z,17.17
2018-12-15T23:33:13.367Z,15.33
2018-12-15T23:35:42.811Z,16.67
2018-12-15T23:38:12.724Z,16.20
2018-12-15T23:40:42.925Z,15.95
2018-12-15T23:45:51.927Z,14.27
2018-12-15T23:51:00.619Z,16.73
2018-12-15T23:53:29.775Z,13.97
2018-12-15T23:58:38.005Z,15.57
